sensor_id;sensor_type;location;lat;lon;timestamp;temperature;humidity
23783;DHT22;12071;50.850;4.446;2023-07-13T00:01:47;17.40;99.90
23783;DHT22;12071;50.850;4.446;2023-07-13T00:04:18;17.30;1.00
23783;DHT22;12071;50.850;4.446;2023-07-13T00:06:45;17.40;1.00
23783;DHT22;12071;50.850;4.446;2023-07-13T00:09:13;17.30;1.00
23783;DHT22;12071;50.850;4.446;2023-07-13T00:11:39;17.70;99.90
23783;DHT22;12071;50.850;4.446;2023-07-13T00:14:05;17.70;99.90
23783;DHT22;12071;50.850;4.446;2023-07-13T00:16:32;17.70;99.90
23783;DHT22;12071;50.850;4.446;2023-07-13T00:18:58;17.50;99.90
23783;DHT22;12071;50.850;4.446;2023-07-13T00:21:25;17.30;1.00
23783;DHT22;12071;50.850;4.446;2023-07-13T00:23:51;17.10;1.00
23783;DHT22;12071;50.850;4.446;2023-07-13T00:26:17;17.20;1.00
23783;DHT22;12071;50.850;4.446;2023-07-13T00:28:42;17.30;1.00
23783;DHT22;12071;50.850;4.446;2023-07-13T00:31:10;17.30;1.00
23783;DHT22;12071;50.850;4.446;2023-07-13T00:33:36;17.20;1.00
23783;DHT22;12071;50.850;4.446;2023-07-13T00:36:02;17.20;1.00
23783;DHT22;12071;50.850;4.446;2023-07-13T00:38:28;17.20;1.00
23783;DHT22;12071;50.850;4.446;2023-07-13T00:40:54;17.20;1.00
23783;DHT22;12071;50.850;4.446;2023-07-13T00:43:21;17.20;1.00
23783;DHT22;12071;50.850;4.446;2023-07-13T00:48:23;17.10;1.00
23783;DHT22;12071;50.850;4.446;2023-07-13T00:50:51;17.00;1.00
23783;DHT22;12071;50.850;4.446;2023-07-13T00:53:19;16.90;10.40
23783;DHT22;12071;50.850;4.446;2023-07-13T00:55:46;17.10;1.00
23783;DHT22;12071;50.850;4.446;2023-07-13T00:58:12;17.10;1.00
23783;DHT22;12071;50.850;4.446;2023-07-13T01:00:38;17.00;25.60
23783;DHT22;12071;50.850;4.446;2023-07-13T01:03:05;17.20;16.00
23783;DHT22;12071;50.850;4.446;2023-07-13T01:05:33;17.10;14.50
23783;DHT22;12071;50.850;4.446;2023-07-13T01:08:00;17.00;50.10
23783;DHT22;12071;50.850;4.446;2023-07-13T01:10:27;17.00;49.90
23783;DHT22;12071;50.850;4.446;2023-07-13T01:12:53;17.10;47.10
23783;DHT22;12071;50.850;4.446;2023-07-13T01:18:25;16.80;99.90
23783;DHT22;12071;50.850;4.446;2023-07-13T01:20:58;16.90;99.90
23783;DHT22;12071;50.850;4.446;2023-07-13T01:23:25;17.00;99.90
23783;DHT22;12071;50.850;4.446;2023-07-13T01:25:51;17.10;97.10
23783;DHT22;12071;50.850;4.446;2023-07-13T01:28:18;16.80;99.90
23783;DHT22;12071;50.850;4.446;2023-07-13T01:30:45;16.70;99.90
23783;DHT22;12071;50.850;4.446;2023-07-13T01:33:13;16.80;99.90
23783;DHT22;12071;50.850;4.446;2023-07-13T01:35:39;16.80;99.90
23783;DHT22;12071;50.850;4.446;2023-07-13T01:38:05;16.80;99.90
23783;DHT22;12071;50.850;4.446;2023-07-13T01:40:31;16.90;99.90
23783;DHT22;12071;50.850;4.446;2023-07-13T01:42:58;16.80;99.90
23783;DHT22;12071;50.850;4.446;2023-07-13T01:45:24;16.80;99.90
23783;DHT22;12071;50.850;4.446;2023-07-13T01:47:49;16.90;99.90
23783;DHT22;12071;50.850;4.446;2023-07-13T01:50:15;17.10;99.90
23783;DHT22;12071;50.850;4.446;2023-07-13T01:52:41;17.00;99.90
23783;DHT22;12071;50.850;4.446;2023-07-13T01:55:07;16.80;99.90
23783;DHT22;12071;50.850;4.446;2023-07-13T01:57:33;16.60;99.90
23783;DHT22;12071;50.850;4.446;2023-07-13T01:59:58;16.70;99.90
23783;DHT22;12071;50.850;4.446;2023-07-13T02:02:24;16.60;99.90
23783;DHT22;12071;50.850;4.446;2023-07-13T02:04:49;16.70;99.90
23783;DHT22;12071;50.850;4.446;2023-07-13T02:07:15;16.60;99.90
23783;DHT22;12071;50.850;4.446;2023-07-13T02:09:41;16.70;99.90
23783;DHT22;12071;50.850;4.446;2023-07-13T02:12:07;16.60;99.90
23783;DHT22;12071;50.850;4.446;2023-07-13T02:14:33;16.70;99.90
23783;DHT22;12071;50.850;4.446;2023-07-13T02:16:59;16.80;99.90
23783;DHT22;12071;50.850;4.446;2023-07-13T02:19:24;16.90;99.90
23783;DHT22;12071;50.850;4.446;2023-07-13T02:21:50;16.70;99.90
23783;DHT22;12071;50.850;4.446;2023-07-13T02:24:16;16.40;99.90
23783;DHT22;12071;50.850;4.446;2023-07-13T02:26:46;16.30;99.90
23783;DHT22;12071;50.850;4.446;2023-07-13T02:29:12;16.50;99.90
23783;DHT22;12071;50.850;4.446;2023-07-13T02:31:37;16.60;99.90
23783;DHT22;12071;50.850;4.446;2023-07-13T02:34:03;16.50;99.90
23783;DHT22;12071;50.850;4.446;2023-07-13T02:36:30;16.40;99.90
23783;DHT22;12071;50.850;4.446;2023-07-13T02:38:55;16.50;99.90
23783;DHT22;12071;50.850;4.446;2023-07-13T02:41:21;16.50;99.90
23783;DHT22;12071;50.850;4.446;2023-07-13T02:43:48;16.60;99.90
23783;DHT22;12071;50.850;4.446;2023-07-13T02:46:14;16.60;99.90
23783;DHT22;12071;50.850;4.446;2023-07-13T02:48:40;16.20;99.90
23783;DHT22;12071;50.850;4.446;2023-07-13T02:51:06;16.20;99.90
23783;DHT22;12071;50.850;4.446;2023-07-13T02:53:33;16.30;99.90
23783;DHT22;12071;50.850;4.446;2023-07-13T02:55:58;16.10;99.90
23783;DHT22;12071;50.850;4.446;2023-07-13T02:58:25;16.20;99.90
23783;DHT22;12071;50.850;4.446;2023-07-13T03:00:51;16.10;99.90
23783;DHT22;12071;50.850;4.446;2023-07-13T03:03:17;16.20;99.90
23783;DHT22;12071;50.850;4.446;2023-07-13T03:05:44;16.10;99.90
23783;DHT22;12071;50.850;4.446;2023-07-13T03:08:14;16.00;99.90
23783;DHT22;12071;50.850;4.446;2023-07-13T03:10:40;16.00;99.90
23783;DHT22;12071;50.850;4.446;2023-07-13T03:13:06;16.00;99.90
23783;DHT22;12071;50.850;4.446;2023-07-13T03:15:31;16.10;99.90
23783;DHT22;12071;50.850;4.446;2023-07-13T03:17:57;16.00;99.90
23783;DHT22;12071;50.850;4.446;2023-07-13T03:20:23;15.90;99.90
23783;DHT22;12071;50.850;4.446;2023-07-13T03:22:48;16.00;99.90
23783;DHT22;12071;50.850;4.446;2023-07-13T03:25:14;16.10;99.90
23783;DHT22;12071;50.850;4.446;2023-07-13T03:27:39;16.10;99.90
23783;DHT22;12071;50.850;4.446;2023-07-13T03:30:05;16.20;99.90
23783;DHT22;12071;50.850;4.446;2023-07-13T03:32:31;16.10;99.90
23783;DHT22;12071;50.850;4.446;2023-07-13T03:34:57;16.20;99.90
23783;DHT22;12071;50.850;4.446;2023-07-13T03:37:23;16.30;99.90
23783;DHT22;12071;50.850;4.446;2023-07-13T03:39:49;16.20;99.90
23783;DHT22;12071;50.850;4.446;2023-07-13T03:42:15;16.10;99.90
23783;DHT22;12071;50.850;4.446;2023-07-13T03:44:41;16.10;99.90
23783;DHT22;12071;50.850;4.446;2023-07-13T03:47:07;15.90;99.90
23783;DHT22;12071;50.850;4.446;2023-07-13T03:49:34;15.80;99.90
23783;DHT22;12071;50.850;4.446;2023-07-13T03:52:00;15.60;99.90
23783;DHT22;12071;50.850;4.446;2023-07-13T03:54:26;15.70;99.90
23783;DHT22;12071;50.850;4.446;2023-07-13T03:56:52;15.80;99.90
23783;DHT22;12071;50.850;4.446;2023-07-13T03:59:18;16.00;99.90
23783;DHT22;12071;50.850;4.446;2023-07-13T04:01:44;16.00;99.90
23783;DHT22;12071;50.850;4.446;2023-07-13T04:04:10;16.10;99.90
23783;DHT22;12071;50.850;4.446;2023-07-13T04:06:35;16.20;99.90
23783;DHT22;12071;50.850;4.446;2023-07-13T04:09:03;16.30;99.90
23783;DHT22;12071;50.850;4.446;2023-07-13T04:11:31;16.10;99.90
23783;DHT22;12071;50.850;4.446;2023-07-13T04:13:57;16.30;99.90
23783;DHT22;12071;50.850;4.446;2023-07-13T04:16:23;16.30;99.90
23783;DHT22;12071;50.850;4.446;2023-07-13T04:18:50;16.20;99.90
23783;DHT22;12071;50.850;4.446;2023-07-13T04:21:16;16.30;99.90
23783;DHT22;12071;50.850;4.446;2023-07-13T04:23:42;16.60;99.90
23783;DHT22;12071;50.850;4.446;2023-07-13T04:26:09;16.30;99.90
23783;DHT22;12071;50.850;4.446;2023-07-13T04:28:35;16.10;99.90
23783;DHT22;12071;50.850;4.446;2023-07-13T04:31:01;16.30;99.90
23783;DHT22;12071;50.850;4.446;2023-07-13T04:33:27;16.20;99.90
23783;DHT22;12071;50.850;4.446;2023-07-13T04:35:54;16.40;99.90
23783;DHT22;12071;50.850;4.446;2023-07-13T04:38:27;16.40;99.90
23783;DHT22;12071;50.850;4.446;2023-07-13T04:40:55;16.30;99.90
23783;DHT22;12071;50.850;4.446;2023-07-13T04:43:21;16.40;99.90
23783;DHT22;12071;50.850;4.446;2023-07-13T04:45:47;16.30;99.90
23783;DHT22;12071;50.850;4.446;2023-07-13T04:48:13;16.40;99.90
23783;DHT22;12071;50.850;4.446;2023-07-13T04:50:38;16.50;99.90
23783;DHT22;12071;50.850;4.446;2023-07-13T04:53:04;16.50;99.90
23783;DHT22;12071;50.850;4.446;2023-07-13T04:55:31;16.50;99.90
23783;DHT22;12071;50.850;4.446;2023-07-13T04:57:57;16.40;99.90
23783;DHT22;12071;50.850;4.446;2023-07-13T05:00:24;16.50;99.90
23783;DHT22;12071;50.850;4.446;2023-07-13T05:02:50;16.40;99.90
23783;DHT22;12071;50.850;4.446;2023-07-13T05:05:16;16.60;99.90
23783;DHT22;12071;50.850;4.446;2023-07-13T05:07:47;16.70;99.90
23783;DHT22;12071;50.850;4.446;2023-07-13T05:10:12;16.70;99.90
23783;DHT22;12071;50.850;4.446;2023-07-13T05:12:38;16.80;99.90
23783;DHT22;12071;50.850;4.446;2023-07-13T05:15:04;16.90;99.90
23783;DHT22;12071;50.850;4.446;2023-07-13T05:17:30;16.90;99.90
23783;DHT22;12071;50.850;4.446;2023-07-13T05:19:56;16.80;99.90
23783;DHT22;12071;50.850;4.446;2023-07-13T05:22:21;17.00;99.90
23783;DHT22;12071;50.850;4.446;2023-07-13T05:27:22;16.80;99.90
23783;DHT22;12071;50.850;4.446;2023-07-13T05:29:48;16.80;99.90
23783;DHT22;12071;50.850;4.446;2023-07-13T05:32:14;16.90;99.90
23783;DHT22;12071;50.850;4.446;2023-07-13T05:34:40;16.90;99.90
23783;DHT22;12071;50.850;4.446;2023-07-13T05:37:05;16.70;99.90
23783;DHT22;12071;50.850;4.446;2023-07-13T05:39:31;16.70;99.90
23783;DHT22;12071;50.850;4.446;2023-07-13T05:41:56;16.70;99.90
23783;DHT22;12071;50.850;4.446;2023-07-13T05:44:22;16.70;99.90
23783;DHT22;12071;50.850;4.446;2023-07-13T05:46:48;16.70;99.90
23783;DHT22;12071;50.850;4.446;2023-07-13T05:49:13;16.90;99.90
23783;DHT22;12071;50.850;4.446;2023-07-13T05:51:39;17.10;99.90
23783;DHT22;12071;50.850;4.446;2023-07-13T05:54:04;17.00;99.90
23783;DHT22;12071;50.850;4.446;2023-07-13T05:56:30;17.20;99.90
23783;DHT22;12071;50.850;4.446;2023-07-13T05:58:56;17.10;99.90
23783;DHT22;12071;50.850;4.446;2023-07-13T06:01:22;17.10;99.90
23783;DHT22;12071;50.850;4.446;2023-07-13T06:03:49;17.10;99.90
23783;DHT22;12071;50.850;4.446;2023-07-13T06:06:15;17.20;99.90
23783;DHT22;12071;50.850;4.446;2023-07-13T06:08:40;16.90;99.90
23783;DHT22;12071;50.850;4.446;2023-07-13T06:11:15;17.00;99.90
23783;DHT22;12071;50.850;4.446;2023-07-13T06:13:41;17.20;99.90
23783;DHT22;12071;50.850;4.446;2023-07-13T06:16:07;17.30;99.90
23783;DHT22;12071;50.850;4.446;2023-07-13T06:18:35;17.30;99.90
23783;DHT22;12071;50.850;4.446;2023-07-13T06:21:26;17.30;99.90
23783;DHT22;12071;50.850;4.446;2023-07-13T06:23:51;17.40;99.90
23783;DHT22;12071;50.850;4.446;2023-07-13T06:26:19;17.50;99.90
23783;DHT22;12071;50.850;4.446;2023-07-13T06:28:45;17.60;99.90
23783;DHT22;12071;50.850;4.446;2023-07-13T06:31:12;17.60;99.90
23783;DHT22;12071;50.850;4.446;2023-07-13T06:33:38;17.70;99.90
23783;DHT22;12071;50.850;4.446;2023-07-13T06:36:05;17.80;99.90
23783;DHT22;12071;50.850;4.446;2023-07-13T06:38:31;17.90;99.90
23783;DHT22;12071;50.850;4.446;2023-07-13T06:40:57;18.00;99.90
23783;DHT22;12071;50.850;4.446;2023-07-13T06:43:23;18.00;99.90
23783;DHT22;12071;50.850;4.446;2023-07-13T06:45:50;18.10;99.90
23783;DHT22;12071;50.850;4.446;2023-07-13T06:48:17;18.10;99.90
23783;DHT22;12071;50.850;4.446;2023-07-13T06:50:44;18.20;99.90
23783;DHT22;12071;50.850;4.446;2023-07-13T06:53:10;18.20;99.90
23783;DHT22;12071;50.850;4.446;2023-07-13T06:55:36;18.10;99.90
23783;DHT22;12071;50.850;4.446;2023-07-13T06:58:02;18.00;99.90
23783;DHT22;12071;50.850;4.446;2023-07-13T07:00:28;17.90;99.90
23783;DHT22;12071;50.850;4.446;2023-07-13T07:02:54;18.00;99.90
23783;DHT22;12071;50.850;4.446;2023-07-13T07:05:19;18.30;99.90
23783;DHT22;12071;50.850;4.446;2023-07-13T07:07:48;18.20;99.90
23783;DHT22;12071;50.850;4.446;2023-07-13T07:10:13;18.50;99.90
23783;DHT22;12071;50.850;4.446;2023-07-13T07:12:39;18.30;99.90
23783;DHT22;12071;50.850;4.446;2023-07-13T07:15:05;18.40;99.90
23783;DHT22;12071;50.850;4.446;2023-07-13T07:17:30;18.50;99.90
23783;DHT22;12071;50.850;4.446;2023-07-13T07:19:56;18.60;99.90
23783;DHT22;12071;50.850;4.446;2023-07-13T07:22:22;18.70;99.90
23783;DHT22;12071;50.850;4.446;2023-07-13T07:24:47;19.00;99.90
23783;DHT22;12071;50.850;4.446;2023-07-13T07:27:13;19.00;99.90
23783;DHT22;12071;50.850;4.446;2023-07-13T07:29:39;19.10;99.90
23783;DHT22;12071;50.850;4.446;2023-07-13T07:32:05;19.00;99.90
23783;DHT22;12071;50.850;4.446;2023-07-13T07:34:31;18.90;99.90
23783;DHT22;12071;50.850;4.446;2023-07-13T07:36:59;18.60;99.90
23783;DHT22;12071;50.850;4.446;2023-07-13T07:39:26;18.60;99.90
23783;DHT22;12071;50.850;4.446;2023-07-13T07:41:52;18.60;99.90
23783;DHT22;12071;50.850;4.446;2023-07-13T07:44:18;18.70;99.90
23783;DHT22;12071;50.850;4.446;2023-07-13T07:46:43;18.70;99.90
23783;DHT22;12071;50.850;4.446;2023-07-13T07:49:09;18.80;99.90
23783;DHT22;12071;50.850;4.446;2023-07-13T07:51:36;18.60;99.90
23783;DHT22;12071;50.850;4.446;2023-07-13T07:54:01;18.50;99.90
23783;DHT22;12071;50.850;4.446;2023-07-13T07:56:27;18.70;99.90
23783;DHT22;12071;50.850;4.446;2023-07-13T07:58:53;18.80;99.90
23783;DHT22;12071;50.850;4.446;2023-07-13T08:01:18;18.90;99.90
23783;DHT22;12071;50.850;4.446;2023-07-13T08:03:44;18.80;99.90
23783;DHT22;12071;50.850;4.446;2023-07-13T08:06:10;19.00;99.90
23783;DHT22;12071;50.850;4.446;2023-07-13T08:08:35;19.20;99.90
23783;DHT22;12071;50.850;4.446;2023-07-13T08:11:05;19.30;99.90
23783;DHT22;12071;50.850;4.446;2023-07-13T08:13:32;19.60;99.90
23783;DHT22;12071;50.850;4.446;2023-07-13T08:15:58;19.30;72.70
23783;DHT22;12071;50.850;4.446;2023-07-13T08:18:24;19.30;99.90
23783;DHT22;12071;50.850;4.446;2023-07-13T08:20:50;19.40;99.90
23783;DHT22;12071;50.850;4.446;2023-07-13T08:23:15;19.50;99.90
23783;DHT22;12071;50.850;4.446;2023-07-13T08:25:42;19.50;97.90
23783;DHT22;12071;50.850;4.446;2023-07-13T08:28:08;19.70;88.80
23783;DHT22;12071;50.850;4.446;2023-07-13T08:30:34;20.00;1.00
23783;DHT22;12071;50.850;4.446;2023-07-13T08:32:59;20.10;1.00
23783;DHT22;12071;50.850;4.446;2023-07-13T08:35:25;19.80;1.00
23783;DHT22;12071;50.850;4.446;2023-07-13T08:37:51;20.00;1.00
23783;DHT22;12071;50.850;4.446;2023-07-13T08:40:19;20.00;1.00
23783;DHT22;12071;50.850;4.446;2023-07-13T08:42:54;20.10;1.00
23783;DHT22;12071;50.850;4.446;2023-07-13T08:47:53;20.30;1.00
23783;DHT22;12071;50.850;4.446;2023-07-13T08:50:23;20.10;1.00
23783;DHT22;12071;50.850;4.446;2023-07-13T08:52:51;19.90;1.00
23783;DHT22;12071;50.850;4.446;2023-07-13T08:55:30;20.00;1.00
23783;DHT22;12071;50.850;4.446;2023-07-13T08:58:03;20.00;1.00
23783;DHT22;12071;50.850;4.446;2023-07-13T09:00:55;20.00;99.90
23783;DHT22;12071;50.850;4.446;2023-07-13T09:03:22;19.80;99.90
23783;DHT22;12071;50.850;4.446;2023-07-13T09:05:50;20.20;99.90
23783;DHT22;12071;50.850;4.446;2023-07-13T09:11:06;20.20;99.90
23783;DHT22;12071;50.850;4.446;2023-07-13T09:16:35;20.60;99.90
23783;DHT22;12071;50.850;4.446;2023-07-13T09:19:04;20.60;99.90
23783;DHT22;12071;50.850;4.446;2023-07-13T09:21:31;20.90;22.70
23783;DHT22;12071;50.850;4.446;2023-07-13T09:24:06;21.00;1.00
23783;DHT22;12071;50.850;4.446;2023-07-13T09:26:39;21.10;99.90
23783;DHT22;12071;50.850;4.446;2023-07-13T09:29:27;21.00;99.90
23783;DHT22;12071;50.850;4.446;2023-07-13T09:31:54;20.60;2.50
23783;DHT22;12071;50.850;4.446;2023-07-13T09:34:22;20.60;99.90
23783;DHT22;12071;50.850;4.446;2023-07-13T09:36:48;20.80;91.90
23783;DHT22;12071;50.850;4.446;2023-07-13T09:39:36;21.10;99.90
23783;DHT22;12071;50.850;4.446;2023-07-13T09:42:15;21.40;99.90
23783;DHT22;12071;50.850;4.446;2023-07-13T09:47:20;21.60;1.00
23783;DHT22;12071;50.850;4.446;2023-07-13T09:49:53;22.10;99.90
23783;DHT22;12071;50.850;4.446;2023-07-13T09:52:19;22.30;99.90
23783;DHT22;12071;50.850;4.446;2023-07-13T09:54:45;22.10;99.90
23783;DHT22;12071;50.850;4.446;2023-07-13T09:57:14;22.00;1.00
23783;DHT22;12071;50.850;4.446;2023-07-13T09:59:44;22.30;99.90
23783;DHT22;12071;50.850;4.446;2023-07-13T10:04:45;22.70;99.90
23783;DHT22;12071;50.850;4.446;2023-07-13T10:07:12;22.60;99.90
23783;DHT22;12071;50.850;4.446;2023-07-13T10:09:38;22.20;1.00
23783;DHT22;12071;50.850;4.446;2023-07-13T10:12:04;22.30;1.00
23783;DHT22;12071;50.850;4.446;2023-07-13T10:14:38;21.90;39.20
23783;DHT22;12071;50.850;4.446;2023-07-13T10:17:05;21.90;99.90
23783;DHT22;12071;50.850;4.446;2023-07-13T10:19:34;22.20;1.00
23783;DHT22;12071;50.850;4.446;2023-07-13T10:22:01;22.10;99.80
23783;DHT22;12071;50.850;4.446;2023-07-13T10:24:32;22.40;99.90
23783;DHT22;12071;50.850;4.446;2023-07-13T10:27:09;22.20;99.90
23783;DHT22;12071;50.850;4.446;2023-07-13T10:29:38;22.00;99.90
23783;DHT22;12071;50.850;4.446;2023-07-13T10:32:08;22.30;99.90
23783;DHT22;12071;50.850;4.446;2023-07-13T10:34:34;22.40;1.00
23783;DHT22;12071;50.850;4.446;2023-07-13T10:37:00;22.60;99.90
23783;DHT22;12071;50.850;4.446;2023-07-13T10:39:27;22.90;1.00
23783;DHT22;12071;50.850;4.446;2023-07-13T10:41:58;22.90;99.90
23783;DHT22;12071;50.850;4.446;2023-07-13T10:44:25;22.90;60.80
23783;DHT22;12071;50.850;4.446;2023-07-13T10:47:02;22.40;1.00
23783;DHT22;12071;50.850;4.446;2023-07-13T10:49:29;21.90;91.70
23783;DHT22;12071;50.850;4.446;2023-07-13T10:51:56;22.20;1.00
23783;DHT22;12071;50.850;4.446;2023-07-13T10:54:26;22.30;99.90
23783;DHT22;12071;50.850;4.446;2023-07-13T10:59:36;22.50;29.70
23783;DHT22;12071;50.850;4.446;2023-07-13T11:04:27;22.40;99.90
23783;DHT22;12071;50.850;4.446;2023-07-13T11:06:58;22.40;1.00
23783;DHT22;12071;50.850;4.446;2023-07-13T11:12:00;22.50;1.00
23783;DHT22;12071;50.850;4.446;2023-07-13T11:14:27;22.50;99.90
23783;DHT22;12071;50.850;4.446;2023-07-13T11:16:52;22.60;99.90
23783;DHT22;12071;50.850;4.446;2023-07-13T11:30:06;22.60;99.90
23783;DHT22;12071;50.850;4.446;2023-07-13T11:32:32;22.70;96.00
23783;DHT22;12071;50.850;4.446;2023-07-13T11:34:58;23.20;99.90
23783;DHT22;12071;50.850;4.446;2023-07-13T11:37:23;23.80;1.00
23783;DHT22;12071;50.850;4.446;2023-07-13T11:39:50;23.60;99.90
23783;DHT22;12071;50.850;4.446;2023-07-13T11:42:17;23.30;1.00
23783;DHT22;12071;50.850;4.446;2023-07-13T11:44:47;22.90;1.00
23783;DHT22;12071;50.850;4.446;2023-07-13T11:47:20;22.90;1.00
23783;DHT22;12071;50.850;4.446;2023-07-13T11:49:50;22.70;1.00
23783;DHT22;12071;50.850;4.446;2023-07-13T11:52:17;22.40;1.00
23783;DHT22;12071;50.850;4.446;2023-07-13T11:54:47;22.10;1.00
23783;DHT22;12071;50.850;4.446;2023-07-13T11:59:41;21.80;5.30
23783;DHT22;12071;50.850;4.446;2023-07-13T12:02:14;21.70;88.80
23783;DHT22;12071;50.850;4.446;2023-07-13T12:04:42;21.70;99.90
23783;DHT22;12071;50.850;4.446;2023-07-13T12:07:14;21.80;99.90
23783;DHT22;12071;50.850;4.446;2023-07-13T12:09:40;21.80;99.90
23783;DHT22;12071;50.850;4.446;2023-07-13T12:12:13;21.90;99.90
23783;DHT22;12071;50.850;4.446;2023-07-13T12:14:39;21.90;99.90
23783;DHT22;12071;50.850;4.446;2023-07-13T12:19:40;21.90;99.90
23783;DHT22;12071;50.850;4.446;2023-07-13T12:22:08;22.00;99.90
23783;DHT22;12071;50.850;4.446;2023-07-13T12:24:35;21.90;99.90
23783;DHT22;12071;50.850;4.446;2023-07-13T12:27:02;22.10;97.40
23783;DHT22;12071;50.850;4.446;2023-07-13T12:29:29;22.30;99.90
23783;DHT22;12071;50.850;4.446;2023-07-13T12:31:55;22.60;1.00
23783;DHT22;12071;50.850;4.446;2023-07-13T12:34:22;22.70;1.00
23783;DHT22;12071;50.850;4.446;2023-07-13T12:36:49;22.50;1.00
23783;DHT22;12071;50.850;4.446;2023-07-13T12:39:17;22.40;66.20
23783;DHT22;12071;50.850;4.446;2023-07-13T12:41:44;22.10;1.00
23783;DHT22;12071;50.850;4.446;2023-07-13T12:44:29;21.60;99.90
23783;DHT22;12071;50.850;4.446;2023-07-13T12:47:05;21.60;99.90
23783;DHT22;12071;50.850;4.446;2023-07-13T12:49:31;21.00;37.40
23783;DHT22;12071;50.850;4.446;2023-07-13T12:52:01;20.70;10.90
23783;DHT22;12071;50.850;4.446;2023-07-13T12:54:27;20.70;70.10
23783;DHT22;12071;50.850;4.446;2023-07-13T12:56:57;20.70;76.40
23783;DHT22;12071;50.850;4.446;2023-07-13T12:59:23;20.50;99.90
23783;DHT22;12071;50.850;4.446;2023-07-13T13:01:51;20.10;1.00
23783;DHT22;12071;50.850;4.446;2023-07-13T13:04:16;19.70;9.00
23783;DHT22;12071;50.850;4.446;2023-07-13T13:06:47;19.60;93.40
23783;DHT22;12071;50.850;4.446;2023-07-13T13:09:13;19.30;99.90
23783;DHT22;12071;50.850;4.446;2023-07-13T13:11:42;19.00;99.90
23783;DHT22;12071;50.850;4.446;2023-07-13T13:14:07;19.20;99.90
23783;DHT22;12071;50.850;4.446;2023-07-13T13:16:54;19.50;99.90
23783;DHT22;12071;50.850;4.446;2023-07-13T13:19:23;20.30;99.90
23783;DHT22;12071;50.850;4.446;2023-07-13T13:21:50;20.80;99.90
23783;DHT22;12071;50.850;4.446;2023-07-13T13:24:19;21.20;85.30
23783;DHT22;12071;50.850;4.446;2023-07-13T13:26:45;21.50;1.00
23783;DHT22;12071;50.850;4.446;2023-07-13T13:29:12;21.90;1.00
23783;DHT22;12071;50.850;4.446;2023-07-13T13:31:39;22.00;99.90
23783;DHT22;12071;50.850;4.446;2023-07-13T13:34:04;22.50;1.00
23783;DHT22;12071;50.850;4.446;2023-07-13T13:36:32;22.50;98.10
23783;DHT22;12071;50.850;4.446;2023-07-13T13:38:58;22.80;1.00
23783;DHT22;12071;50.850;4.446;2023-07-13T13:41:23;23.10;1.00
23783;DHT22;12071;50.850;4.446;2023-07-13T13:43:49;23.40;1.00
23783;DHT22;12071;50.850;4.446;2023-07-13T13:46:18;23.70;99.90
23783;DHT22;12071;50.850;4.446;2023-07-13T13:48:44;24.70;64.50
23783;DHT22;12071;50.850;4.446;2023-07-13T13:51:16;25.90;1.00
23783;DHT22;12071;50.850;4.446;2023-07-13T13:53:42;26.10;99.90
23783;DHT22;12071;50.850;4.446;2023-07-13T13:56:08;25.80;99.90
23783;DHT22;12071;50.850;4.446;2023-07-13T13:58:34;25.90;99.90
23783;DHT22;12071;50.850;4.446;2023-07-13T14:00:59;25.70;99.90
23783;DHT22;12071;50.850;4.446;2023-07-13T14:03:25;24.40;1.00
23783;DHT22;12071;50.850;4.446;2023-07-13T14:05:53;24.30;1.00
23783;DHT22;12071;50.850;4.446;2023-07-13T14:08:20;24.30;99.90
23783;DHT22;12071;50.850;4.446;2023-07-13T14:10:48;23.90;1.00
23783;DHT22;12071;50.850;4.446;2023-07-13T14:13:22;23.80;99.90
23783;DHT22;12071;50.850;4.446;2023-07-13T14:15:52;23.60;1.00
23783;DHT22;12071;50.850;4.446;2023-07-13T14:18:17;23.70;63.80
23783;DHT22;12071;50.850;4.446;2023-07-13T14:20:43;23.80;56.30
23783;DHT22;12071;50.850;4.446;2023-07-13T14:23:10;23.50;99.90
23783;DHT22;12071;50.850;4.446;2023-07-13T14:25:35;23.80;1.00
23783;DHT22;12071;50.850;4.446;2023-07-13T14:28:04;23.90;1.00
23783;DHT22;12071;50.850;4.446;2023-07-13T14:30:37;23.60;99.90
23783;DHT22;12071;50.850;4.446;2023-07-13T14:33:04;23.70;99.90
23783;DHT22;12071;50.850;4.446;2023-07-13T14:35:32;23.70;99.90
23783;DHT22;12071;50.850;4.446;2023-07-13T14:37:58;23.70;99.90
23783;DHT22;12071;50.850;4.446;2023-07-13T14:40:25;23.80;99.90
23783;DHT22;12071;50.850;4.446;2023-07-13T14:42:52;23.70;99.90
23783;DHT22;12071;50.850;4.446;2023-07-13T14:45:18;23.40;99.90
23783;DHT22;12071;50.850;4.446;2023-07-13T14:47:44;23.40;99.90
23783;DHT22;12071;50.850;4.446;2023-07-13T14:50:53;23.00;1.00
23783;DHT22;12071;50.850;4.446;2023-07-13T14:53:00;23.90;98.30
23783;DHT22;12071;50.850;4.446;2023-07-13T14:55:26;25.50;1.00
23783;DHT22;12071;50.850;4.446;2023-07-13T14:57:52;27.40;1.00
23783;DHT22;12071;50.850;4.446;2023-07-13T15:00:19;28.80;99.90
23783;DHT22;12071;50.850;4.446;2023-07-13T15:02:47;30.10;85.00
23783;DHT22;12071;50.850;4.446;2023-07-13T15:05:14;30.10;12.70
23783;DHT22;12071;50.850;4.446;2023-07-13T15:07:40;29.60;1.90
23783;DHT22;12071;50.850;4.446;2023-07-13T15:10:24;29.50;1.00
23783;DHT22;12071;50.850;4.446;2023-07-13T15:12:56;29.40;2.70
23783;DHT22;12071;50.850;4.446;2023-07-13T15:15:23;29.70;1.00
23783;DHT22;12071;50.850;4.446;2023-07-13T15:17:48;30.30;1.00
23783;DHT22;12071;50.850;4.446;2023-07-13T15:20:32;31.10;1.00
23783;DHT22;12071;50.850;4.446;2023-07-13T15:22:58;32.10;1.00
23783;DHT22;12071;50.850;4.446;2023-07-13T15:25:26;32.20;1.00
23783;DHT22;12071;50.850;4.446;2023-07-13T15:27:52;33.00;1.00
23783;DHT22;12071;50.850;4.446;2023-07-13T15:30:19;33.80;1.00
23783;DHT22;12071;50.850;4.446;2023-07-13T15:32:45;34.50;1.00
23783;DHT22;12071;50.850;4.446;2023-07-13T15:35:24;34.60;99.90
23783;DHT22;12071;50.850;4.446;2023-07-13T15:37:50;34.90;99.90
23783;DHT22;12071;50.850;4.446;2023-07-13T15:40:16;33.70;99.90
23783;DHT22;12071;50.850;4.446;2023-07-13T15:42:42;32.60;99.90
23783;DHT22;12071;50.850;4.446;2023-07-13T15:45:15;33.60;99.90
23783;DHT22;12071;50.850;4.446;2023-07-13T15:47:42;34.00;99.90
23783;DHT22;12071;50.850;4.446;2023-07-13T15:50:17;33.50;99.90
23783;DHT22;12071;50.850;4.446;2023-07-13T15:52:43;33.60;99.90
23783;DHT22;12071;50.850;4.446;2023-07-13T15:55:10;32.70;99.90
23783;DHT22;12071;50.850;4.446;2023-07-13T15:57:35;33.00;99.90
23783;DHT22;12071;50.850;4.446;2023-07-13T16:00:01;32.90;99.90
23783;DHT22;12071;50.850;4.446;2023-07-13T16:02:26;33.00;99.90
23783;DHT22;12071;50.850;4.446;2023-07-13T16:04:52;32.90;99.90
23783;DHT22;12071;50.850;4.446;2023-07-13T16:07:17;32.40;99.90
23783;DHT22;12071;50.850;4.446;2023-07-13T16:09:44;31.70;99.90
23783;DHT22;12071;50.850;4.446;2023-07-13T16:12:11;30.00;99.90
23783;DHT22;12071;50.850;4.446;2023-07-13T16:14:37;29.70;99.90
23783;DHT22;12071;50.850;4.446;2023-07-13T16:17:03;29.40;99.90
23783;DHT22;12071;50.850;4.446;2023-07-13T16:19:28;29.60;99.90
23783;DHT22;12071;50.850;4.446;2023-07-13T16:21:54;30.30;99.90